createdAt,value
2022-11-08T00:02:10.808Z,101258.94
2022-11-08T00:05:33.750Z,101238.88
2022-11-08T00:08:56.471Z,101234.00
2022-11-08T00:12:19.050Z,101210.34
2022-11-08T00:15:23.401Z,101237.41
2022-11-08T00:18:27.669Z,101254.69
2022-11-08T00:21:31.973Z,101243.56
2022-11-08T00:24:36.545Z,101238.19
2022-11-08T00:27:41.016Z,101248.28
2022-11-08T00:30:45.389Z,101250.00
2022-11-08T00:33:49.637Z,101249.94
2022-11-08T00:36:54.477Z,101251.66
2022-11-08T00:39:58.698Z,101248.41
2022-11-08T00:43:03.086Z,101241.63
2022-11-08T00:46:07.405Z,101237.28
2022-11-08T00:49:12.567Z,101228.31
2022-11-08T00:52:16.612Z,101239.84
2022-11-08T00:55:20.962Z,101228.00
2022-11-08T00:58:27.720Z,101239.38
2022-11-08T01:01:32.802Z,101238.59
2022-11-08T01:04:37.759Z,101232.75
2022-11-08T01:07:42.119Z,101237.22
2022-11-08T01:10:49.366Z,101239.03
2022-11-08T01:13:57.564Z,101231.06
2022-11-08T01:17:01.975Z,101229.28
2022-11-08T01:20:07.171Z,101204.59
2022-11-08T01:23:13.166Z,101231.81
2022-11-08T01:26:19.372Z,101237.91
2022-11-08T01:29:23.450Z,101240.81
2022-11-08T01:32:27.562Z,101239.75
2022-11-08T01:35:35.290Z,101248.47
2022-11-08T01:38:40.229Z,101261.69
2022-11-08T01:41:44.540Z,101253.59
2022-11-08T01:45:01.585Z,101238.56
2022-11-08T01:48:06.593Z,101255.22
2022-11-08T01:51:14.335Z,101245.69
2022-11-08T01:54:24.196Z,101231.03
2022-11-08T01:58:07.628Z,101235.53
2022-11-08T02:01:13.962Z,101215.28
2022-11-08T02:04:18.691Z,101225.75
2022-11-08T02:07:24.165Z,101239.66
2022-11-08T02:10:35.130Z,101241.41
2022-11-08T02:13:40.306Z,101236.09
2022-11-08T02:16:44.767Z,101236.09
2022-11-08T02:19:52.041Z,101231.56
2022-11-08T02:23:14.196Z,101238.31
2022-11-08T02:26:21.434Z,101241.84
2022-11-08T02:29:25.716Z,101246.50
2022-11-08T02:32:41.661Z,101241.38
2022-11-08T02:35:49.706Z,101222.25
2022-11-08T02:38:57.053Z,101235.31
2022-11-08T02:42:03.092Z,101221.16
2022-11-08T02:45:09.186Z,101224.59
2022-11-08T02:48:14.297Z,101221.03
2022-11-08T02:51:18.990Z,101226.34
2022-11-08T02:54:23.582Z,101231.56
2022-11-08T02:57:27.960Z,101208.75
2022-11-08T03:00:33.316Z,101217.66
2022-11-08T03:03:37.973Z,101210.75
2022-11-08T03:06:42.262Z,101195.88
2022-11-08T03:09:46.613Z,101208.94
2022-11-08T03:12:59.182Z,101203.72
2022-11-08T03:16:07.540Z,101193.94
2022-11-08T03:19:13.317Z,101198.44
2022-11-08T03:22:17.305Z,101205.41
2022-11-08T03:25:21.571Z,101195.66
2022-11-08T03:28:25.999Z,101195.78
2022-11-08T03:31:30.439Z,101186.00
2022-11-08T03:34:34.661Z,101175.53
2022-11-08T03:37:39.100Z,101180.88
2022-11-08T03:40:44.138Z,101181.69
2022-11-08T03:43:48.508Z,101170.28
2022-11-08T03:46:52.692Z,101167.72
2022-11-08T03:49:56.992Z,101181.72
2022-11-08T03:53:01.263Z,101179.09
2022-11-08T03:56:05.993Z,101165.00
2022-11-08T03:59:12.518Z,101165.88
2022-11-08T04:02:17.031Z,101173.75
2022-11-08T04:05:23.109Z,101161.41
2022-11-08T04:08:27.506Z,101170.31
2022-11-08T04:11:50.389Z,101155.38
2022-11-08T04:15:13.179Z,101161.56
2022-11-08T04:18:35.927Z,101157.19
2022-11-08T04:21:40.279Z,101150.16
2022-11-08T04:24:45.145Z,101165.09
2022-11-08T04:27:49.555Z,101151.03
2022-11-08T04:31:06.828Z,101159.84
2022-11-08T04:34:11.357Z,101158.94
2022-11-08T04:37:15.554Z,101147.53
2022-11-08T04:40:20.170Z,101152.81
2022-11-08T04:43:24.842Z,101151.91
2022-11-08T04:46:30.777Z,101147.47
2022-11-08T04:49:34.894Z,101158.06
2022-11-08T04:52:39.228Z,101146.63
2022-11-08T04:55:43.676Z,101141.34
2022-11-08T04:58:53.227Z,101148.41
2022-11-08T05:01:57.899Z,101156.31
2022-11-08T05:05:02.097Z,101156.31
2022-11-08T05:08:07.459Z,101154.56
2022-11-08T05:11:16.948Z,101147.53
2022-11-08T05:14:21.461Z,101144.88
2022-11-08T05:17:25.506Z,101149.28
2022-11-08T05:20:48.332Z,101137.84
2022-11-08T05:23:53.197Z,101150.16
2022-11-08T05:26:57.781Z,101132.53
2022-11-08T05:30:02.458Z,101136.09
2022-11-08T05:33:07.443Z,101122.03
2022-11-08T05:36:14.218Z,101136.09
2022-11-08T05:39:18.445Z,101122.91
2022-11-08T05:42:22.779Z,101129.94
2022-11-08T05:45:27.197Z,101132.59
2022-11-08T05:48:32.059Z,101129.06
2022-11-08T05:51:36.333Z,101094.75
2022-11-08T05:54:40.529Z,101119.38
2022-11-08T05:57:44.608Z,101117.63
2022-11-08T06:00:48.819Z,101121.97
2022-11-08T06:03:53.306Z,101134.22
2022-11-08T06:06:57.551Z,101128.97
2022-11-08T06:10:02.010Z,101127.19
2022-11-08T06:13:07.331Z,101132.47
2022-11-08T06:16:14.198Z,101132.47
2022-11-08T06:19:18.406Z,101122.81
2022-11-08T06:22:22.550Z,101131.53
2022-11-08T06:25:27.021Z,101087.53
2022-11-08T06:28:31.333Z,101136.78
2022-11-08T06:31:41.884Z,101129.75
2022-11-08T06:34:50.016Z,101120.94
2022-11-08T06:37:59.891Z,101138.50
2022-11-08T06:41:05.137Z,101135.88
2022-11-08T06:44:09.496Z,101128.81
2022-11-08T06:47:13.627Z,101134.97
2022-11-08T06:50:17.794Z,101140.28
2022-11-08T06:53:22.411Z,101129.72
2022-11-08T06:56:27.140Z,101130.63
2022-11-08T06:59:31.587Z,101124.47
2022-11-08T07:02:36.361Z,101129.75
2022-11-08T07:05:40.536Z,101129.69
2022-11-08T07:08:45.086Z,101118.22
2022-11-08T07:11:49.388Z,101126.97
2022-11-08T07:14:53.665Z,101128.69
2022-11-08T07:18:03.223Z,101123.38
2022-11-08T07:21:07.783Z,101133.91
2022-11-08T07:24:12.219Z,101118.91
2022-11-08T07:27:16.762Z,101120.66
2022-11-08T07:30:20.888Z,101121.41
2022-11-08T07:33:25.328Z,101133.59
2022-11-08T07:36:29.760Z,101125.53
2022-11-08T07:39:34.170Z,101124.44
2022-11-08T07:43:09.651Z,101144.28
2022-11-08T07:46:04.271Z,101140.81
2022-11-08T07:49:08.744Z,101144.16
2022-11-08T07:52:13.326Z,101116.16
2022-11-08T07:55:17.594Z,101157.06
2022-11-08T07:58:22.027Z,101143.50
2022-11-08T08:01:26.486Z,101155.59
2022-11-08T08:04:31.790Z,101148.81
2022-11-08T08:07:37.368Z,101163.53
2022-11-08T08:10:42.633Z,101155.50
2022-11-08T08:13:47.324Z,101161.91
2022-11-08T08:16:51.953Z,101159.25
2022-11-08T08:19:56.541Z,101148.09
2022-11-08T08:23:01.869Z,101162.84
2022-11-08T08:26:06.454Z,101162.63
2022-11-08T08:29:10.913Z,101166.88
2022-11-08T08:32:15.698Z,101170.56
2022-11-08T08:35:20.223Z,101163.19
2022-11-08T08:38:26.012Z,101185.75
2022-11-08T08:41:30.056Z,101176.44
2022-11-08T08:44:34.990Z,101185.72
2022-11-08T08:47:39.370Z,101178.72
2022-11-08T08:50:43.782Z,101185.88
2022-11-08T08:53:48.223Z,101166.00
2022-11-08T08:56:54.805Z,101171.69
2022-11-08T09:03:23.673Z,101175.56
2022-11-08T09:06:28.190Z,101166.97
2022-11-08T09:09:32.692Z,101181.47
2022-11-08T09:12:37.628Z,101165.13
2022-11-08T09:15:42.404Z,101187.19
2022-11-08T09:18:46.750Z,101194.66
2022-11-08T09:21:51.345Z,101200.41
2022-11-08T09:24:55.683Z,101181.44
2022-11-08T09:28:00.135Z,101194.75
2022-11-08T09:31:07.264Z,101185.13
2022-11-08T09:34:11.726Z,101197.81
2022-11-08T09:37:16.107Z,101183.53
2022-11-08T09:40:34.242Z,101202.22
2022-11-08T09:44:00.885Z,101202.56
2022-11-08T09:47:12.796Z,101210.03
2022-11-08T09:50:39.699Z,101198.69
2022-11-08T09:54:05.164Z,101204.34
2022-11-08T09:58:00.392Z,101218.41
2022-11-08T10:01:05.581Z,101163.84
2022-11-08T10:04:17.536Z,101209.13
2022-11-08T10:07:37.806Z,101213.84
2022-11-08T10:10:48.657Z,101217.13
2022-11-08T10:14:26.619Z,101222.59
2022-11-08T10:17:34.203Z,101220.09
2022-11-08T10:20:59.611Z,101213.91
2022-11-08T10:24:10.472Z,101199.88
2022-11-08T10:27:34.207Z,101202.13
2022-11-08T10:30:41.744Z,101204.53
2022-11-08T10:33:56.383Z,101209.84
2022-11-08T10:37:07.598Z,101207.31
2022-11-08T10:40:26.634Z,101215.84
2022-11-08T10:43:47.013Z,101200.81
2022-11-08T10:46:57.452Z,101212.09
2022-11-08T10:50:04.397Z,101208.69
2022-11-08T10:53:24.238Z,101199.22
2022-11-08T10:56:29.920Z,101214.56
2022-11-08T10:59:35.099Z,101209.81
2022-11-08T11:02:39.816Z,101198.94
2022-11-08T11:05:59.712Z,101208.06
2022-11-08T11:09:21.213Z,101217.88
2022-11-08T11:12:26.527Z,101219.63
2022-11-08T11:15:45.084Z,101219.13
2022-11-08T11:18:54.042Z,101219.91
2022-11-08T11:22:08.168Z,101212.16
2022-11-08T11:25:21.618Z,101204.91
2022-11-08T11:28:29.129Z,101216.78
2022-11-08T11:31:45.554Z,101206.38
2022-11-08T11:35:05.478Z,101220.59
2022-11-08T11:38:21.041Z,101211.28
2022-11-08T11:41:52.756Z,101208.94
2022-11-08T11:45:21.111Z,101222.84
2022-11-08T11:48:37.112Z,101213.25
2022-11-08T11:51:46.303Z,101215.13
2022-11-08T11:54:51.737Z,101206.16
2022-11-08T11:58:27.928Z,101206.34
2022-11-08T12:01:52.003Z,101220.47
2022-11-08T12:05:02.419Z,101221.56
2022-11-08T12:08:43.141Z,101221.69
2022-11-08T12:12:20.974Z,101229.88
2022-11-08T12:15:58.254Z,101227.09
2022-11-08T12:19:31.861Z,101219.91
2022-11-08T12:23:00.574Z,101231.59
2022-11-08T12:26:25.567Z,101204.06
2022-11-08T12:30:04.239Z,101238.97
2022-11-08T12:33:57.647Z,101229.34
2022-11-08T12:37:15.136Z,101191.00
2022-11-08T12:40:32.935Z,101213.56
2022-11-08T12:44:00.374Z,101231.41
2022-11-08T12:47:25.326Z,101212.66
2022-11-08T12:50:34.589Z,101231.75
2022-11-08T12:53:41.773Z,101228.19
2022-11-08T12:56:50.902Z,101230.72
2022-11-08T13:00:17.368Z,101232.13
2022-11-08T13:03:42.572Z,101240.41
2022-11-08T13:06:57.150Z,101233.19
2022-11-08T13:10:04.700Z,101242.16
2022-11-08T13:13:25.421Z,101234.13
2022-11-08T13:16:40.711Z,101224.19
2022-11-08T13:19:48.326Z,101234.81
2022-11-08T13:23:01.191Z,101227.38
2022-11-08T13:26:35.513Z,101219.38
2022-11-08T13:29:40.049Z,101158.38
2022-11-08T13:32:47.496Z,101221.75
2022-11-08T13:36:13.579Z,101210.00
2022-11-08T13:39:32.927Z,101225.91
2022-11-08T13:42:37.246Z,101207.38
2022-11-08T13:45:41.702Z,101216.69
2022-11-08T13:49:06.317Z,101217.38
2022-11-08T13:52:48.634Z,101213.66
2022-11-08T13:55:57.993Z,101212.19
2022-11-08T13:59:02.209Z,101210.50
2022-11-08T14:02:26.504Z,101192.69
2022-11-08T14:05:43.472Z,101201.59
2022-11-08T14:08:59.393Z,101194.84
2022-11-08T14:12:27.798Z,101200.53
2022-11-08T14:15:58.251Z,101183.44
2022-11-08T14:19:31.827Z,101188.88
2022-11-08T14:22:36.142Z,101165.56
2022-11-08T14:25:41.157Z,101175.09
2022-11-08T14:28:47.436Z,101169.81
2022-11-08T14:32:16.620Z,101179.84
2022-11-08T14:35:26.746Z,101196.81
2022-11-08T14:38:34.393Z,101175.38
2022-11-08T14:41:38.880Z,101168.78
2022-11-08T14:44:45.476Z,101189.50
2022-11-08T14:48:00.363Z,101169.03
2022-11-08T14:51:07.217Z,101185.84
2022-11-08T14:54:38.209Z,101173.81
2022-11-08T14:57:47.734Z,101185.63
2022-11-08T15:00:52.218Z,101172.53
2022-11-08T15:04:03.908Z,101170.72
2022-11-08T15:07:10.675Z,101134.28
2022-11-08T15:10:15.270Z,101169.31
2022-11-08T15:13:20.118Z,101149.47
2022-11-08T15:16:25.380Z,101175.47
2022-11-08T15:19:45.370Z,101179.84
2022-11-08T15:22:54.128Z,101188.59
2022-11-08T15:26:01.877Z,101177.72
2022-11-08T15:29:16.810Z,101184.84
2022-11-08T15:32:22.959Z,101198.69
2022-11-08T15:35:40.591Z,101169.63
2022-11-08T15:38:50.377Z,101185.94
2022-11-08T15:42:24.264Z,101190.53
2022-11-08T15:45:36.419Z,101188.44
2022-11-08T15:48:42.174Z,101181.84
2022-11-08T15:51:47.324Z,101166.94
2022-11-08T15:54:51.523Z,101173.84
2022-11-08T15:57:56.510Z,101148.63
2022-11-08T16:01:02.904Z,101180.19
2022-11-08T16:04:14.105Z,101168.78
2022-11-08T16:07:18.625Z,101167.66
2022-11-08T16:10:33.698Z,101172.19
2022-11-08T16:13:40.764Z,101165.91
2022-11-08T16:16:45.744Z,101175.00
2022-11-08T16:19:50.244Z,101149.84
2022-11-08T16:22:56.120Z,101168.13
2022-11-08T16:26:01.781Z,101154.69
2022-11-08T16:29:06.655Z,101153.59
2022-11-08T16:32:11.659Z,101154.97
2022-11-08T16:35:18.225Z,101155.94
2022-11-08T16:38:29.426Z,101162.09
2022-11-08T16:41:35.771Z,101166.97
2022-11-08T16:44:45.223Z,101167.22
2022-11-08T16:47:51.715Z,101171.56
2022-11-08T16:51:04.221Z,101171.56
2022-11-08T16:54:19.863Z,101165.34
2022-11-08T16:57:39.596Z,101171.22
2022-11-08T17:00:46.211Z,101170.13
2022-11-08T17:03:50.691Z,101171.72
2022-11-08T17:06:55.939Z,101174.94
2022-11-08T17:10:00.370Z,101153.50
2022-11-08T17:13:05.037Z,101159.66
2022-11-08T17:16:13.082Z,101154.78
2022-11-08T17:19:17.420Z,101153.91
2022-11-08T17:22:21.772Z,101145.97
2022-11-08T17:25:27.028Z,101160.31
2022-11-08T17:28:31.529Z,101143.75
2022-11-08T17:31:36.259Z,101147.25
2022-11-08T17:34:40.830Z,101139.44
2022-11-08T17:37:45.230Z,101134.53
2022-11-08T17:40:49.660Z,101124.78
2022-11-08T17:43:53.680Z,101117.28
2022-11-08T17:46:58.209Z,101122.06
2022-11-08T17:50:06.342Z,101098.13
2022-11-08T17:53:10.796Z,101112.81
2022-11-08T17:56:15.365Z,101109.03
2022-11-08T17:59:20.135Z,101098.38
2022-11-08T18:02:28.232Z,101090.47
2022-11-08T18:05:32.750Z,101117.03
2022-11-08T18:08:37.041Z,101097.06
2022-11-08T18:11:48.458Z,101103.94
2022-11-08T18:14:52.571Z,101096.16
2022-11-08T18:17:57.152Z,101064.59
2022-11-08T18:21:01.421Z,101094.97
2022-11-08T18:24:05.950Z,101087.25
2022-11-08T18:27:10.414Z,101080.22
2022-11-08T18:30:15.078Z,101072.41
2022-11-08T18:33:22.037Z,101083.34
2022-11-08T18:36:29.430Z,101069.03
2022-11-08T18:39:34.100Z,101064.34
2022-11-08T18:42:38.673Z,101039.03
2022-11-08T18:45:43.011Z,101065.63
2022-11-08T18:48:47.869Z,101082.09
2022-11-08T18:51:52.996Z,101028.50
2022-11-08T18:54:58.567Z,101064.06
2022-11-08T18:58:04.387Z,101071.13
2022-11-08T19:01:08.629Z,101061.03
2022-11-08T19:04:14.401Z,101048.28
2022-11-08T19:07:18.754Z,101059.19
2022-11-08T19:10:23.196Z,101057.94
2022-11-08T19:13:29.670Z,101048.50
2022-11-08T19:16:34.227Z,101051.81
2022-11-08T19:19:38.490Z,101062.38
2022-11-08T19:22:43.106Z,101060.13
2022-11-08T19:25:55.373Z,101046.94
2022-11-08T19:29:00.231Z,101058.38
2022-11-08T19:32:05.007Z,101049.75
2022-11-08T19:35:10.926Z,101055.03
2022-11-08T19:38:16.971Z,101042.84
2022-11-08T19:41:23.453Z,101048.53
2022-11-08T19:44:28.209Z,101054.53
2022-11-08T19:47:33.019Z,101052.38
2022-11-08T19:50:37.334Z,101053.28
2022-11-08T19:53:42.504Z,101030.41
2022-11-08T20:00:12.388Z,101041.78
2022-11-08T20:03:16.368Z,101035.09
2022-11-08T20:06:22.766Z,101038.59
2022-11-08T20:09:30.595Z,101022.03
2022-11-08T20:12:35.574Z,101034.44
2022-11-08T20:15:39.837Z,101038.06
2022-11-08T20:18:44.804Z,101037.75
2022-11-08T20:21:49.370Z,101019.59
2022-11-08T20:24:53.851Z,101019.94
2022-11-08T20:27:57.814Z,101014.66
2022-11-08T20:31:04.453Z,101021.41
2022-11-08T20:34:11.105Z,101021.88
2022-11-08T20:37:15.565Z,101021.09
2022-11-08T20:40:19.936Z,100998.72
2022-11-08T20:43:25.150Z,101015.75
2022-11-08T20:46:30.532Z,100985.09
2022-11-08T20:49:34.709Z,101003.75
2022-11-08T20:52:39.207Z,100995.97
2022-11-08T20:55:43.229Z,100998.72
2022-11-08T20:58:49.038Z,101002.34
2022-11-08T21:01:53.382Z,100956.19
2022-11-08T21:04:57.749Z,100976.63
2022-11-08T21:08:19.814Z,100978.34
2022-11-08T21:11:28.625Z,100972.41
2022-11-08T21:14:33.064Z,100973.41
2022-11-08T21:17:37.670Z,100967.06
2022-11-08T21:20:42.562Z,100973.19
2022-11-08T21:23:48.787Z,100960.31
2022-11-08T21:26:53.053Z,100962.09
2022-11-08T21:29:57.420Z,100955.75
2022-11-08T21:33:01.666Z,100968.09
2022-11-08T21:36:06.889Z,100965.56
2022-11-08T21:39:11.842Z,100978.03
2022-11-08T21:42:16.295Z,100980.06
2022-11-08T21:45:21.425Z,100964.13
2022-11-08T21:48:25.588Z,100948.47
2022-11-08T21:51:30.866Z,100974.75
2022-11-08T21:54:35.157Z,100977.50
2022-11-08T21:57:40.504Z,100966.75
2022-11-08T22:00:50.791Z,100914.81
2022-11-08T22:03:55.523Z,100955.66
2022-11-08T22:06:59.849Z,100940.94
2022-11-08T22:10:05.359Z,100922.53
2022-11-08T22:13:09.810Z,100937.94
2022-11-08T22:16:14.124Z,100888.84
2022-11-08T22:19:18.341Z,100906.09
2022-11-08T22:22:23.144Z,100895.31
2022-11-08T22:25:27.384Z,100905.41
2022-11-08T22:28:31.719Z,100901.09
2022-11-08T22:31:36.247Z,100850.47
2022-11-08T22:34:40.577Z,100899.34
2022-11-08T22:37:44.683Z,100892.00
2022-11-08T22:40:49.306Z,100897.38
2022-11-08T22:43:54.032Z,100883.16
2022-11-08T22:46:58.281Z,100861.63
2022-11-08T22:50:02.641Z,100886.91
2022-11-08T22:53:07.552Z,100874.00
2022-11-08T22:56:12.835Z,100878.41
2022-11-08T22:59:17.333Z,100886.44
2022-11-08T23:02:21.575Z,100886.34
2022-11-08T23:05:25.785Z,100866.63
2022-11-08T23:08:31.411Z,100884.75
2022-11-08T23:11:54.175Z,100883.72
2022-11-08T23:15:16.793Z,100886.88
2022-11-08T23:18:23.162Z,100874.84
2022-11-08T23:21:45.857Z,100874.41
2022-11-08T23:24:50.479Z,100874.34
2022-11-08T23:28:13.272Z,100880.94
2022-11-08T23:31:35.773Z,100871.47
2022-11-08T23:34:40.003Z,100869.06
2022-11-08T23:37:44.532Z,100887.47
2022-11-08T23:41:07.346Z,100870.69
2022-11-08T23:44:26.992Z,100860.59
2022-11-08T23:47:31.154Z,100850.22
2022-11-08T23:50:35.532Z,100869.66
2022-11-08T23:53:40.703Z,100852.03
2022-11-08T23:56:45.982Z,100857.13
2022-11-08T23:59:50.332Z,100853.00
